createdAt,value
2023-05-12T05:41:38.600Z,4.10
2023-05-12T05:44:19.012Z,4.10
2023-05-12T05:46:53.571Z,3.80
2023-05-12T05:50:04.577Z,4.20
2023-05-12T05:53:27.755Z,3.80
2023-05-12T05:56:25.990Z,3.70
2023-05-12T05:58:53.671Z,4.20
2023-05-12T06:01:20.633Z,3.80
2023-05-12T06:03:47.989Z,4.90
2023-05-12T06:06:16.218Z,3.70
2023-05-12T06:08:46.205Z,3.80
2023-05-12T06:11:15.347Z,4.60
2023-05-12T06:13:43.543Z,5.00
2023-05-12T06:16:10.899Z,3.50
2023-05-12T06:18:54.306Z,4.60
2023-05-12T06:21:50.982Z,4.90
2023-05-12T06:24:51.721Z,4.10
2023-05-12T06:27:47.366Z,3.30
2023-05-12T06:30:16.408Z,3.30
2023-05-12T06:32:50.014Z,3.00
2023-05-12T06:35:17.373Z,2.80
2023-05-12T06:37:49.530Z,3.20
2023-05-12T06:40:21.241Z,3.30
2023-05-12T06:42:50.230Z,2.80
2023-05-12T06:45:20.422Z,2.60
2023-05-12T06:47:48.973Z,2.90
2023-05-12T06:50:17.277Z,2.90
2023-05-12T06:52:46.753Z,2.70
2023-05-12T06:55:14.878Z,2.80
2023-05-12T06:57:59.426Z,2.50
2023-05-12T07:00:31.920Z,2.80
2023-05-12T07:02:59.586Z,2.40
2023-05-12T07:05:28.523Z,2.80
2023-05-12T07:07:55.740Z,2.10
2023-05-12T07:10:22.740Z,2.30
2023-05-12T07:12:50.376Z,2.10
2023-05-12T07:15:18.734Z,1.70
2023-05-12T07:17:51.087Z,2.00
2023-05-12T07:20:19.858Z,1.90
2023-05-12T07:22:48.241Z,1.60
2023-05-12T07:25:16.100Z,2.00
2023-05-12T07:27:43.452Z,2.00
2023-05-12T07:30:10.809Z,2.20
2023-05-12T07:32:37.698Z,1.90
2023-05-12T07:35:05.276Z,1.90
2023-05-12T07:37:32.333Z,1.70
2023-05-12T07:39:59.292Z,1.50
2023-05-12T07:42:27.073Z,1.70
2023-05-12T07:44:54.147Z,2.10
2023-05-12T07:47:21.069Z,1.70
2023-05-12T07:49:48.055Z,2.20
2023-05-12T07:52:14.986Z,2.00
2023-05-12T07:54:41.942Z,2.00
2023-05-12T07:57:13.044Z,2.10
2023-05-12T07:59:40.738Z,2.30
2023-05-12T08:02:08.435Z,2.80
2023-05-12T08:04:45.996Z,2.20
2023-05-12T08:07:13.546Z,1.70
2023-05-12T08:09:40.617Z,2.00
2023-05-12T08:12:09.404Z,2.00
2023-05-12T08:14:37.314Z,2.20
2023-05-12T08:17:35.067Z,2.00
2023-05-12T08:20:14.115Z,2.10
2023-05-12T08:22:41.804Z,1.80
2023-05-12T08:25:17.850Z,2.30
2023-05-12T08:27:54.182Z,2.00
2023-05-12T08:30:22.627Z,2.40
2023-05-12T08:32:49.831Z,2.50
2023-05-12T08:35:16.825Z,1.80
2023-05-12T08:37:47.747Z,2.30
2023-05-12T08:40:23.680Z,2.00
2023-05-12T08:43:25.402Z,1.70
2023-05-12T08:45:57.875Z,1.80
2023-05-12T08:48:27.377Z,2.10
2023-05-12T08:50:54.440Z,1.60
2023-05-12T08:53:22.418Z,1.90
2023-05-12T08:57:08.078Z,2.80
2023-05-12T08:58:41.630Z,1.90
2023-05-12T09:01:09.848Z,1.80
2023-05-12T09:03:36.890Z,1.60
2023-05-12T09:06:03.942Z,1.80
2023-05-12T09:08:34.976Z,1.80
2023-05-12T09:11:02.267Z,1.80
2023-05-12T09:13:52.598Z,1.70
2023-05-12T09:16:23.601Z,1.80
2023-05-12T09:18:54.738Z,1.70
2023-05-12T09:21:21.992Z,2.00
2023-05-12T09:24:06.799Z,2.00
2023-05-12T09:26:54.852Z,2.20
2023-05-12T09:29:31.334Z,1.60
2023-05-12T09:32:02.970Z,2.00
2023-05-12T09:34:32.095Z,2.40
2023-05-12T09:37:01.356Z,2.60
2023-05-12T09:39:30.213Z,2.60
2023-05-12T09:41:57.428Z,2.30
2023-05-12T09:44:24.935Z,1.80
2023-05-12T09:46:52.833Z,2.10
2023-05-12T09:49:20.520Z,2.20
2023-05-12T09:51:47.680Z,1.90
2023-05-12T09:54:28.251Z,1.80
2023-05-12T09:56:58.679Z,1.90
2023-05-12T09:59:33.744Z,1.60
2023-05-12T10:02:01.765Z,1.80
2023-05-12T10:04:29.253Z,2.00
2023-05-12T10:06:56.481Z,2.10
2023-05-12T10:09:35.668Z,1.90
2023-05-12T10:12:08.984Z,1.90
2023-05-12T10:14:36.161Z,1.80
2023-05-12T10:17:03.262Z,2.00
2023-05-12T10:19:30.649Z,2.10
2023-05-12T10:21:57.863Z,1.90
2023-05-12T10:24:27.362Z,2.10
2023-05-12T10:26:56.718Z,2.90
2023-05-12T10:29:33.172Z,2.00
2023-05-12T10:32:01.326Z,2.20
2023-05-12T10:34:37.012Z,1.80
2023-05-12T10:37:11.290Z,2.20
2023-05-12T10:39:47.227Z,1.70
2023-05-12T10:42:26.163Z,1.90
2023-05-12T10:44:55.556Z,2.10
2023-05-12T10:47:29.530Z,1.80
2023-05-12T10:49:59.881Z,2.00
2023-05-12T10:52:26.894Z,1.50
2023-05-12T10:55:00.339Z,1.50
2023-05-12T10:57:27.784Z,2.50
2023-05-12T10:59:59.640Z,1.70
2023-05-12T11:02:36.689Z,1.60
2023-05-12T11:05:11.164Z,1.90
2023-05-12T11:07:39.765Z,1.50
2023-05-12T11:10:08.048Z,1.60
2023-05-12T11:12:38.166Z,1.70
2023-05-12T11:15:06.028Z,1.70
2023-05-12T11:17:33.240Z,1.70
2023-05-12T11:20:01.584Z,1.70
2023-05-12T11:22:28.875Z,2.00
2023-05-12T11:24:56.108Z,1.80
2023-05-12T11:27:23.811Z,1.40
2023-05-12T11:30:01.231Z,2.00
2023-05-12T11:32:29.856Z,1.50
2023-05-12T11:35:16.965Z,1.70
2023-05-12T11:37:44.634Z,1.80
2023-05-12T11:40:15.688Z,2.00
2023-05-12T11:42:46.255Z,1.80
2023-05-12T11:45:21.713Z,1.60
2023-05-12T11:47:49.028Z,1.30
2023-05-12T11:50:25.954Z,1.40
2023-05-12T11:52:53.077Z,1.60
2023-05-12T11:55:22.451Z,1.80
2023-05-12T11:58:01.026Z,1.40
2023-05-12T12:00:32.784Z,1.40
2023-05-12T12:03:10.156Z,1.70
2023-05-12T12:05:37.816Z,1.80
2023-05-12T12:08:14.992Z,1.40
2023-05-12T12:10:45.688Z,1.60
2023-05-12T12:13:22.674Z,1.80
2023-05-12T12:15:50.414Z,1.60
2023-05-12T12:18:17.685Z,1.30
2023-05-12T12:20:45.111Z,1.40
2023-05-12T12:23:12.065Z,1.40
2023-05-12T12:25:39.041Z,1.60
2023-05-12T12:28:05.961Z,1.60
2023-05-12T12:30:33.003Z,2.00
2023-05-12T12:33:00.014Z,1.50
2023-05-12T12:35:27.168Z,1.80
2023-05-12T12:37:54.248Z,1.80
2023-05-12T12:40:21.424Z,1.80
2023-05-12T12:42:48.389Z,1.80
2023-05-12T12:45:15.447Z,1.80
2023-05-12T12:47:43.319Z,1.90
2023-05-12T12:50:10.781Z,1.90
2023-05-12T12:52:38.486Z,1.90
2023-05-12T12:55:06.726Z,1.70
2023-05-12T12:57:33.647Z,1.30
2023-05-12T13:00:01.456Z,1.60
2023-05-12T13:02:28.451Z,1.60
2023-05-12T13:04:55.494Z,1.30
2023-05-12T13:07:22.489Z,1.80
2023-05-12T13:09:49.402Z,1.60
2023-05-12T13:12:16.699Z,1.40
2023-05-12T13:14:43.587Z,1.90
2023-05-12T13:17:10.556Z,1.80
2023-05-12T13:19:38.158Z,1.80
2023-05-12T13:22:05.591Z,2.60
2023-05-12T13:24:33.040Z,1.70
2023-05-12T13:27:00.067Z,1.40
2023-05-12T13:29:27.081Z,1.90
2023-05-12T13:31:54.530Z,1.50
2023-05-12T13:34:21.443Z,1.40
2023-05-12T13:36:48.677Z,1.60
2023-05-12T13:39:16.412Z,1.70
2023-05-12T13:41:44.779Z,1.20
2023-05-12T13:44:11.907Z,1.20
2023-05-12T13:46:38.941Z,1.60
2023-05-12T13:49:05.989Z,1.90
2023-05-12T13:51:32.897Z,1.70
2023-05-12T13:53:59.788Z,1.60
2023-05-12T13:56:26.867Z,2.10
2023-05-12T13:58:53.859Z,1.60
2023-05-12T14:01:20.844Z,1.50
2023-05-12T14:03:47.853Z,1.90
2023-05-12T14:06:14.802Z,1.50
2023-05-12T14:08:41.946Z,1.50
2023-05-12T14:11:08.879Z,2.20
2023-05-12T14:13:36.151Z,2.10
2023-05-12T14:16:04.314Z,1.60
2023-05-12T14:18:31.389Z,2.40
2023-05-12T14:20:58.446Z,1.80
2023-05-12T14:23:25.373Z,1.80
2023-05-12T14:25:52.260Z,1.70
2023-05-12T14:28:19.310Z,1.70
2023-05-12T14:30:48.746Z,1.80
2023-05-12T14:33:15.842Z,2.40
2023-05-12T14:35:43.474Z,1.50
2023-05-12T14:38:15.237Z,1.70
2023-05-12T14:40:42.743Z,2.20
2023-05-12T14:43:09.773Z,2.30
2023-05-12T14:45:36.639Z,2.30
2023-05-12T14:48:03.918Z,2.40
2023-05-12T14:50:30.990Z,1.90
2023-05-12T14:52:58.004Z,2.20
2023-05-12T14:55:25.332Z,2.20
2023-05-12T14:57:52.305Z,2.10
2023-05-12T15:00:21.408Z,1.80
2023-05-12T15:02:48.778Z,2.30
2023-05-12T15:05:16.313Z,2.40
2023-05-12T15:07:43.295Z,1.60
2023-05-12T15:10:11.131Z,2.30
2023-05-12T15:12:38.185Z,2.00
2023-05-12T15:15:08.536Z,2.10
2023-05-12T15:17:35.552Z,2.10
2023-05-12T15:20:03.831Z,2.10
2023-05-12T15:22:31.717Z,1.90
2023-05-12T15:24:58.880Z,1.70
2023-05-12T15:27:26.474Z,1.90
2023-05-12T15:29:54.014Z,2.20
2023-05-12T15:32:20.915Z,1.90
2023-05-12T15:34:47.855Z,1.70
2023-05-12T15:37:14.886Z,1.80
2023-05-12T15:39:41.790Z,2.00
2023-05-12T15:42:09.418Z,1.60
2023-05-12T15:44:36.613Z,1.90
2023-05-12T15:47:04.051Z,1.90
2023-05-12T15:49:30.973Z,1.40
2023-05-12T15:51:58.105Z,1.60
2023-05-12T15:54:26.561Z,1.70
2023-05-12T15:56:53.532Z,2.00
2023-05-12T15:59:20.750Z,1.80
2023-05-12T16:01:47.893Z,1.40
2023-05-12T16:04:14.892Z,1.60
2023-05-12T16:06:41.850Z,1.80
2023-05-12T16:09:09.596Z,1.70
2023-05-12T16:11:36.622Z,1.60
2023-05-12T16:14:03.685Z,1.40
2023-05-12T16:16:30.985Z,1.80
2023-05-12T16:18:58.285Z,1.50
2023-05-12T16:21:25.168Z,1.80
2023-05-12T16:23:52.130Z,2.00
2023-05-12T16:26:19.426Z,1.90
2023-05-12T16:28:46.693Z,2.10
2023-05-12T16:31:18.181Z,2.30
2023-05-12T16:33:45.708Z,1.40
2023-05-12T16:36:13.172Z,1.80
2023-05-12T16:38:40.133Z,2.20
2023-05-12T16:41:07.742Z,1.60
2023-05-12T16:43:34.818Z,2.10
2023-05-12T16:46:02.538Z,1.60
2023-05-12T16:48:34.345Z,1.80
2023-05-12T16:51:05.684Z,1.70
2023-05-12T16:53:33.152Z,1.70
2023-05-12T16:56:00.137Z,1.80
2023-05-12T16:58:33.430Z,2.00
2023-05-12T17:01:01.179Z,2.30
2023-05-12T17:03:29.230Z,3.60
2023-05-12T17:05:56.527Z,3.90
2023-05-12T17:08:24.593Z,3.00
2023-05-12T17:10:51.975Z,3.50
2023-05-12T17:13:19.028Z,4.10
2023-05-12T17:15:46.037Z,4.90
2023-05-12T17:18:13.178Z,4.90
2023-05-12T17:20:40.211Z,3.90
2023-05-12T17:23:08.437Z,4.50
2023-05-12T17:25:36.815Z,4.50
2023-05-12T17:28:05.080Z,3.90
2023-05-12T17:30:32.230Z,3.30
2023-05-12T17:32:59.324Z,2.30
2023-05-12T17:35:26.469Z,5.10
2023-05-12T17:37:55.700Z,4.20
2023-05-12T17:40:22.917Z,3.80
2023-05-12T17:42:52.803Z,3.00
2023-05-12T17:45:20.267Z,2.70
2023-05-12T17:47:49.268Z,17.10
2023-05-12T17:50:16.434Z,14.00
2023-05-12T17:52:43.722Z,11.20
2023-05-12T17:55:10.918Z,9.90
2023-05-12T17:57:38.295Z,8.00
2023-05-12T18:00:10.530Z,10.90
2023-05-12T18:02:44.037Z,10.50
2023-05-12T18:05:11.235Z,10.30
2023-05-12T18:07:38.233Z,9.70
2023-05-12T18:10:09.417Z,6.80
2023-05-12T18:12:37.136Z,6.30
2023-05-12T18:15:05.072Z,6.00
2023-05-12T18:17:32.665Z,4.50
2023-05-12T18:20:00.076Z,6.70
2023-05-12T18:22:27.347Z,7.80
2023-05-12T18:24:54.631Z,5.60
2023-05-12T18:27:21.590Z,5.50
2023-05-12T18:29:48.626Z,5.10
2023-05-12T18:32:15.639Z,4.90
2023-05-12T18:34:44.322Z,3.60
2023-05-12T18:37:14.516Z,4.10
2023-05-12T18:39:42.929Z,3.70
2023-05-12T18:42:11.153Z,3.50
2023-05-12T18:44:40.595Z,3.30
2023-05-12T18:47:08.677Z,4.00
2023-05-12T18:49:36.274Z,3.30
2023-05-12T18:52:03.548Z,2.60
2023-05-12T18:54:30.827Z,2.90
2023-05-12T18:56:57.834Z,2.60
2023-05-12T18:59:24.826Z,2.70
2023-05-12T19:01:51.789Z,3.00
2023-05-12T19:04:19.682Z,2.40
2023-05-12T19:06:47.035Z,2.80
2023-05-12T19:09:14.052Z,2.70
2023-05-12T19:11:40.999Z,2.30
2023-05-12T19:14:08.033Z,3.20
2023-05-12T19:16:36.445Z,3.10
2023-05-12T19:19:03.537Z,4.20
2023-05-12T19:21:32.413Z,4.30
2023-05-12T19:23:59.440Z,7.70
2023-05-12T19:26:26.988Z,18.00
2023-05-12T19:28:54.053Z,32.50
2023-05-12T19:31:21.056Z,34.10
2023-05-12T19:33:47.984Z,41.20
2023-05-12T19:36:14.947Z,49.80
2023-05-12T19:38:43.813Z,37.40
2023-05-12T19:41:11.002Z,31.30
2023-05-12T19:43:37.982Z,36.40
2023-05-12T19:46:05.015Z,26.50
2023-05-12T19:48:32.454Z,18.20
2023-05-12T19:50:59.364Z,9.90
2023-05-12T19:53:26.909Z,7.20
2023-05-12T19:55:54.035Z,4.90
2023-05-12T19:58:20.960Z,4.30
2023-05-12T20:00:48.115Z,3.50
2023-05-12T20:03:15.429Z,4.00
2023-05-12T20:05:42.715Z,4.10
2023-05-12T20:08:09.722Z,3.80
2023-05-12T20:10:36.778Z,4.10
2023-05-12T20:13:04.597Z,3.60
2023-05-12T20:15:31.697Z,3.80
2023-05-12T20:17:58.630Z,4.80
2023-05-12T20:20:25.822Z,4.60
2023-05-12T20:22:52.852Z,3.60
2023-05-12T20:25:20.032Z,4.60
2023-05-12T20:27:48.227Z,4.50
2023-05-12T20:30:15.134Z,5.00
2023-05-12T20:32:43.659Z,4.80
2023-05-12T20:35:10.944Z,4.30
2023-05-12T20:37:39.115Z,5.50
2023-05-12T20:40:07.214Z,4.60
2023-05-12T20:42:34.308Z,4.50
2023-05-12T20:45:01.393Z,5.20
2023-05-12T20:47:30.603Z,4.50
2023-05-12T20:49:57.855Z,4.70
2023-05-12T20:52:28.978Z,4.90
2023-05-12T20:54:57.993Z,5.10
2023-05-12T20:57:25.871Z,5.00
2023-05-12T20:59:52.867Z,5.70
2023-05-12T21:02:19.934Z,6.40
2023-05-12T21:04:46.872Z,6.40
2023-05-12T21:07:13.875Z,8.60
2023-05-12T21:09:40.852Z,9.30
2023-05-12T21:12:08.477Z,6.90
2023-05-12T21:14:39.743Z,8.60
2023-05-12T21:17:08.058Z,9.70
2023-05-12T21:19:36.217Z,9.30
2023-05-12T21:22:03.987Z,10.90
2023-05-12T21:24:31.062Z,10.60
2023-05-12T21:26:58.422Z,11.60
2023-05-12T21:29:25.565Z,11.80
2023-05-12T21:31:52.677Z,13.80
2023-05-12T21:34:19.848Z,12.50
2023-05-12T21:36:46.986Z,12.10
2023-05-12T21:39:13.873Z,11.20
2023-05-12T21:41:40.980Z,10.70
2023-05-12T21:44:10.418Z,12.30
2023-05-12T21:46:38.293Z,9.80
2023-05-12T21:49:05.382Z,9.70
2023-05-12T21:51:33.271Z,9.80
2023-05-12T21:54:00.865Z,9.40
2023-05-12T21:56:27.883Z,8.20
2023-05-12T21:58:54.829Z,9.00
2023-05-12T22:01:21.826Z,8.70
2023-05-12T22:03:49.515Z,9.90
2023-05-12T22:06:16.626Z,10.80
2023-05-12T22:08:43.708Z,10.80
2023-05-12T22:11:11.396Z,8.80
2023-05-12T22:13:38.423Z,10.20
2023-05-12T22:16:05.923Z,9.90
2023-05-12T22:18:33.464Z,9.40
2023-05-12T22:21:00.707Z,8.20
2023-05-12T22:23:27.597Z,9.00
2023-05-12T22:25:54.653Z,9.90
2023-05-12T22:28:21.585Z,10.80
2023-05-12T22:30:48.577Z,8.80
2023-05-12T22:33:15.575Z,9.70
2023-05-12T22:35:42.844Z,10.90
2023-05-12T22:38:09.960Z,11.90
2023-05-12T22:40:36.865Z,11.90
2023-05-12T22:43:03.816Z,10.70
2023-05-12T22:45:31.068Z,8.70
2023-05-12T22:47:58.288Z,15.00
2023-05-12T22:50:25.473Z,14.40
2023-05-12T22:52:57.262Z,14.60
2023-05-12T22:55:27.360Z,11.00
2023-05-12T22:57:54.414Z,12.80
2023-05-12T23:00:21.689Z,11.60
2023-05-12T23:02:48.982Z,13.10
2023-05-12T23:05:16.126Z,10.90
2023-05-12T23:07:43.037Z,11.40
2023-05-12T23:10:10.540Z,11.10
2023-05-12T23:12:37.520Z,10.90
2023-05-12T23:15:04.909Z,8.80
2023-05-12T23:17:32.117Z,7.90
2023-05-12T23:19:59.255Z,11.10
2023-05-12T23:22:26.218Z,9.30
2023-05-12T23:24:53.641Z,8.00
2023-05-12T23:27:21.060Z,7.20
2023-05-12T23:29:47.916Z,8.60
2023-05-12T23:32:14.889Z,9.20
2023-05-12T23:34:41.867Z,7.70
2023-05-12T23:37:08.880Z,7.80
2023-05-12T23:39:36.032Z,7.30
2023-05-12T23:42:03.898Z,8.10
2023-05-12T23:44:30.976Z,8.90
2023-05-12T23:46:58.035Z,7.40
2023-05-12T23:49:24.939Z,8.30
2023-05-12T23:51:51.850Z,8.90
2023-05-12T23:54:18.898Z,8.20
2023-05-12T23:56:46.097Z,6.80
2023-05-12T23:59:12.949Z,6.80
